Time;durP1;ratioP1;P1;durP2;ratioP2;P2;SDS_P1;SDS_P2;PMS_P1;PMS_P2;Temp;Humidity;BMP_temperature;BMP_pressure;BME280_temperature;BME280_humidity;BME280_pressure;Samples;Min_cycle;Max_cycle;Signal;HPM_P1;HPM_P2
2022/05/31 00:00:06;;;;;;;2.50;2.30;;;9.20;99.90;;;;;;5111119;28;20059;-63
2022/05/31 00:02:31;;;;;;;2.10;2.00;;;9.30;99.90;;;;;;5110231;28;20442;-64
2022/05/31 00:04:58;;;;;;;2.88;2.25;;;9.30;99.90;;;;;;5126809;27;20052;-63
2022/05/31 00:07:24;;;;;;;4.45;2.50;;;9.20;99.90;;;;;;5109963;28;20062;-64
2022/05/31 00:09:49;;;;;;;2.88;2.10;;;9.30;99.90;;;;;;5104182;28;20048;-64
2022/05/31 00:12:16;;;;;;;2.15;1.95;;;9.30;99.90;;;;;;5093581;28;20110;-64
2022/05/31 00:14:42;;;;;;;2.60;1.95;;;9.20;99.90;;;;;;5093361;28;20048;-63
2022/05/31 00:17:08;;;;;;;2.42;2.22;;;9.30;99.90;;;;;;5099026;28;20153;-63
2022/05/31 00:19:34;;;;;;;2.75;2.03;;;9.30;99.90;;;;;;5131449;27;20142;-63
2022/05/31 00:22:06;;;;;;;3.33;1.80;;;9.30;99.90;;;;;;5113680;28;20407;-63
2022/05/31 00:24:32;;;;;;;2.40;2.08;;;9.30;99.90;;;;;;5131021;27;20389;-64
2022/05/31 00:26:58;;;;;;;3.88;2.17;;;9.20;99.90;;;;;;5109590;28;20055;-64
2022/05/31 00:29:24;;;;;;;2.67;2.10;;;9.20;99.90;;;;;;5111102;27;20143;-63
2022/05/31 00:31:51;;;;;;;6.43;1.98;;;9.20;99.90;;;;;;5098973;28;20055;-64
2022/05/31 00:34:17;;;;;;;3.33;2.20;;;9.20;99.90;;;;;;5097363;28;20051;-64
2022/05/31 00:36:45;;;;;;;1.90;1.80;;;9.20;99.90;;;;;;5127491;27;20097;-64
2022/05/31 00:39:11;;;;;;;2.30;2.10;;;9.20;99.90;;;;;;5114872;28;20073;-64
2022/05/31 00:41:39;;;;;;;2.45;2.00;;;9.20;99.90;;;;;;5114694;28;20048;-64
2022/05/31 00:44:08;;;;;;;2.40;2.20;;;9.10;99.90;;;;;;5114783;28;20141;-64
2022/05/31 00:47:01;;;;;;;2.17;1.98;;;9.10;99.90;;;;;;5146409;27;20067;-64
2022/05/31 00:49:38;;;;;;;;;;;9.00;99.90;;;;;;5108398;28;20381;-64
2022/05/31 00:52:10;;;;;;;3.03;2.08;;;9.00;99.90;;;;;;5114473;28;19977;-63
2022/05/31 00:54:39;;;;;;;3.40;2.15;;;8.90;99.90;;;;;;5114265;28;20058;-64
2022/05/31 00:57:05;;;;;;;2.63;2.42;;;8.90;99.90;;;;;;5109078;28;20048;-64
2022/05/31 00:59:39;;;;;;;2.95;2.47;;;8.90;99.90;;;;;;5094098;28;20400;-65
2022/05/31 01:02:06;;;;;;;4.45;2.25;;;8.90;99.90;;;;;;5093771;28;20117;-65
2022/05/31 01:04:38;;;;;;;2.70;2.30;;;8.90;99.90;;;;;;5094047;28;20047;-65
2022/05/31 01:07:05;;;;;;;3.53;2.33;;;8.90;99.90;;;;;;5128612;27;20050;-62
2022/05/31 01:09:31;;;;;;;2.58;2.38;;;8.90;99.90;;;;;;5114310;28;20055;-63
2022/05/31 01:11:57;;;;;;;2.80;2.60;;;8.90;99.90;;;;;;5114246;28;20048;-63
2022/05/31 01:14:25;;;;;;;3.20;2.35;;;8.90;99.90;;;;;;5130301;27;20047;-62
2022/05/31 01:16:59;;;;;;;4.28;2.30;;;8.90;99.90;;;;;;5143660;27;20437;-63
2022/05/31 01:22:09;;;;;;;3.05;2.40;;;8.80;99.90;;;;;;5113885;28;20058;-63
2022/05/31 01:24:49;;;;;;;2.78;2.58;;;8.80;99.90;;;;;;5113384;28;20056;-62
2022/05/31 01:27:32;;;;;;;3.15;2.50;;;8.80;99.90;;;;;;5107755;28;20091;-63
2022/05/31 01:30:00;;;;;;;2.50;2.30;;;8.80;99.90;;;;;;5114321;28;20051;-62
2022/05/31 01:32:26;;;;;;;2.55;2.10;;;8.80;99.90;;;;;;5108083;28;20408;-62
2022/05/31 01:35:08;;;;;;;3.50;2.92;;;8.80;99.90;;;;;;5126053;27;20052;-63
2022/05/31 01:37:49;;;;;;;4.90;2.55;;;8.70;99.90;;;;;;5130713;27;20062;-63
2022/05/31 01:40:27;;;;;;;3.40;2.33;;;8.80;99.90;;;;;;5113009;28;20044;-63
2022/05/31 01:42:52;;;;;;;2.72;2.35;;;8.70;99.90;;;;;;5146335;27;20063;-63
2022/05/31 01:45:22;;;;;;;3.05;2.40;;;8.80;99.90;;;;;;5147040;27;20048;-63
2022/05/31 01:47:49;;;;;;;2.75;2.20;;;8.80;99.90;;;;;;5106389;28;20040;-64
2022/05/31 01:50:19;;;;;;;3.20;2.63;;;8.80;99.90;;;;;;5108828;28;20051;-64
2022/05/31 01:52:46;;;;;;;3.00;2.65;;;8.80;99.90;;;;;;5091711;28;20105;-63
2022/05/31 01:55:13;;;;;;;3.83;2.30;;;8.80;99.90;;;;;;5092888;28;20134;-63
2022/05/31 01:57:42;;;;;;;3.03;2.53;;;8.80;99.90;;;;;;5123645;27;20054;-63
2022/05/31 02:00:12;;;;;;;3.13;2.30;;;8.80;99.90;;;;;;5072650;28;20119;-64
2022/05/31 02:02:38;;;;;;;2.38;2.17;;;8.70;99.90;;;;;;5072352;28;20080;-63
2022/05/31 02:05:05;;;;;;;2.53;2.20;;;8.80;99.90;;;;;;5072718;28;20390;-63
2022/05/31 02:07:31;;;;;;;2.47;2.28;;;8.80;99.90;;;;;;5083039;28;20122;-64
2022/05/31 02:09:57;;;;;;;5.38;2.75;;;8.80;99.90;;;;;;5101206;28;20084;-64
2022/05/31 02:12:26;;;;;;;3.40;2.70;;;8.80;99.90;;;;;;5095433;28;20044;-63
2022/05/31 02:14:52;;;;;;;3.28;2.60;;;8.80;99.90;;;;;;5128135;28;20055;-64
2022/05/31 02:17:17;;;;;;;5.03;2.78;;;8.80;99.90;;;;;;5106015;28;20084;-64
2022/05/31 02:19:44;;;;;;;2.78;2.55;;;8.80;99.90;;;;;;5092887;28;20060;-64
2022/05/31 02:22:13;;;;;;;2.90;2.70;;;8.80;99.90;;;;;;5092615;28;20558;-64
2022/05/31 02:24:40;;;;;;;4.30;2.72;;;8.90;99.90;;;;;;5099753;28;20407;-63
2022/05/31 02:27:07;;;;;;;3.13;2.80;;;8.90;99.90;;;;;;5106254;28;20048;-63
2022/05/31 02:29:35;;;;;;;3.05;2.75;;;8.90;99.90;;;;;;5106389;28;20051;-64
2022/05/31 02:32:03;;;;;;;3.40;3.10;;;8.90;99.90;;;;;;5111344;28;20188;-63
2022/05/31 02:34:32;;;;;;;2.95;2.75;;;8.90;99.90;;;;;;5113266;28;20055;-64
2022/05/31 02:36:58;;;;;;;3.58;3.28;;;8.90;99.90;;;;;;5142740;27;20083;-64
2022/05/31 02:39:24;;;;;;;3.05;2.75;;;8.90;99.90;;;;;;5120482;28;20430;-64
2022/05/31 02:41:50;;;;;;;3.90;2.67;;;8.90;99.90;;;;;;5105858;28;20126;-64
2022/05/31 02:44:17;;;;;;;4.20;3.50;;;9.00;99.90;;;;;;5099222;28;20479;-64
2022/05/31 02:46:43;;;;;;;3.28;2.97;;;9.00;99.90;;;;;;5091895;28;20526;-65
2022/05/31 02:49:09;;;;;;;4.45;2.90;;;9.00;99.90;;;;;;5091682;28;20040;-65
2022/05/31 02:51:41;;;;;;;4.00;3.33;;;9.00;99.90;;;;;;5111650;28;20058;-64
2022/05/31 02:54:08;;;;;;;3.42;3.13;;;9.00;99.90;;;;;;5113058;28;20047;-64
2022/05/31 02:56:33;;;;;;;3.58;2.97;;;9.00;99.90;;;;;;5112754;28;20128;-64
2022/05/31 02:58:59;;;;;;;2.88;2.67;;;9.00;99.90;;;;;;5106675;28;20060;-65
2022/05/31 03:01:31;;;;;;;2.72;2.53;;;9.00;99.90;;;;;;5116358;28;20043;-64
2022/05/31 03:03:58;;;;;;;2.80;2.60;;;9.10;99.90;;;;;;5112667;28;20544;-64
2022/05/31 03:06:24;;;;;;;3.20;2.90;;;9.10;99.90;;;;;;5107546;28;20235;-64
2022/05/31 03:08:50;;;;;;;6.43;3.53;;;9.10;99.90;;;;;;5108726;28;20131;-64
2022/05/31 03:11:18;;;;;;;3.60;2.80;;;9.10;99.90;;;;;;5091478;28;20123;-64
2022/05/31 03:13:46;;;;;;;5.60;3.70;;;9.10;99.90;;;;;;5111867;28;20503;-64
2022/05/31 03:16:14;;;;;;;4.20;3.10;;;9.10;99.90;;;;;;5115016;28;20051;-64
2022/05/31 03:18:46;;;;;;;3.60;3.15;;;9.10;99.90;;;;;;5116675;28;20143;-64
2022/05/31 03:21:17;;;;;;;3.63;2.95;;;9.10;99.90;;;;;;5110092;28;20574;-64
2022/05/31 03:23:48;;;;;;;4.83;3.23;;;9.10;99.90;;;;;;5113766;28;20508;-64
2022/05/31 03:26:17;;;;;;;4.65;3.92;;;9.10;99.90;;;;;;5114135;28;20140;-64
2022/05/31 03:28:43;;;;;;;5.32;3.53;;;9.10;99.90;;;;;;5098948;28;20413;-64
2022/05/31 03:31:09;;;;;;;3.83;3.30;;;9.20;99.90;;;;;;5095451;28;20048;-65
2022/05/31 03:33:34;;;;;;;5.88;3.65;;;9.20;99.90;;;;;;5094335;28;20059;-64
2022/05/31 03:36:00;;;;;;;4.13;3.45;;;9.20;99.90;;;;;;5077719;28;20044;-65
2022/05/31 03:38:26;;;;;;;5.45;4.20;;;9.20;99.90;;;;;;5095342;28;20055;-64
2022/05/31 03:40:58;;;;;;;6.28;4.10;;;9.20;99.90;;;;;;5108804;28;20067;-64
2022/05/31 03:43:43;;;;;;;6.32;3.70;;;9.20;99.90;;;;;;5098302;28;20135;-64
2022/05/31 03:46:15;;;;;;;3.70;3.40;;;9.30;99.90;;;;;;5095299;28;20129;-65
2022/05/31 03:48:41;;;;;;;4.40;3.53;;;9.30;99.90;;;;;;5104839;28;20058;-65
2022/05/31 03:51:09;;;;;;;5.45;4.00;;;9.30;99.90;;;;;;5114025;28;20418;-64
2022/05/31 03:53:36;;;;;;;3.85;3.50;;;9.30;99.90;;;;;;5149064;27;20047;-64
2022/05/31 03:56:07;;;;;;;4.20;3.38;;;9.30;99.90;;;;;;5115402;28;20058;-64
2022/05/31 03:58:33;;;;;;;4.97;4.18;;;9.30;99.90;;;;;;5145346;27;20337;-65
2022/05/31 04:00:58;;;;;;;4.72;3.72;;;9.40;99.90;;;;;;5113434;28;20128;-65
2022/05/31 04:03:25;;;;;;;4.20;3.80;;;9.40;99.90;;;;;;5116015;28;20488;-64
2022/05/31 04:05:51;;;;;;;4.80;3.83;;;9.40;99.90;;;;;;5115565;28;20047;-64
2022/05/31 04:08:19;;;;;;;4.53;3.95;;;9.40;99.90;;;;;;5148926;27;20059;-64
2022/05/31 04:10:45;;;;;;;4.20;3.67;;;9.50;99.90;;;;;;5109921;28;20090;-65
2022/05/31 04:13:11;;;;;;;4.57;4.18;;;9.50;99.90;;;;;;5111996;28;20075;-65
2022/05/31 04:15:37;;;;;;;4.43;4.03;;;9.50;99.90;;;;;;5126792;27;20063;-65
2022/05/31 04:18:04;;;;;;;4.50;4.07;;;9.50;99.90;;;;;;5094583;28;20044;-64
2022/05/31 04:20:30;;;;;;;4.82;3.90;;;9.60;99.90;;;;;;5105275;28;20040;-65
2022/05/31 04:23:57;;;;;;;4.47;4.05;;;9.50;99.90;;;;;;5114832;28;20377;-65
2022/05/31 04:25:42;;;;;;;4.65;3.90;;;9.50;99.90;;;;;;5114882;28;20130;-64
2022/05/31 04:28:09;;;;;;;6.07;3.90;;;9.50;99.90;;;;;;5097641;28;20476;-65
2022/05/31 04:30:36;;;;;;;6.30;4.43;;;9.60;99.90;;;;;;5106530;28;20396;-64
2022/05/31 04:33:01;;;;;;;6.32;4.00;;;9.60;99.90;;;;;;5114328;28;20136;-64
2022/05/31 04:35:27;;;;;;;6.45;4.20;;;9.60;99.90;;;;;;5148044;27;20047;-65
2022/05/31 04:37:52;;;;;;;4.53;4.13;;;9.60;99.90;;;;;;5114810;28;20097;-64
2022/05/31 04:40:18;;;;;;;4.75;4.20;;;9.60;99.90;;;;;;5109453;28;20475;-65
2022/05/31 04:42:44;;;;;;;4.85;4.07;;;9.60;99.90;;;;;;5103566;28;20051;-64
2022/05/31 04:45:09;;;;;;;6.07;4.20;;;9.70;99.90;;;;;;5100450;28;20060;-64
2022/05/31 04:47:35;;;;;;;5.00;4.28;;;9.70;99.90;;;;;;5114258;28;20050;-65
2022/05/31 04:50:01;;;;;;;5.03;4.10;;;9.70;99.90;;;;;;5104796;28;20052;-65
2022/05/31 04:52:27;;;;;;;4.13;3.72;;;9.70;99.90;;;;;;5094155;28;20121;-65
2022/05/31 04:54:53;;;;;;;4.45;3.75;;;9.70;99.90;;;;;;5093674;28;20066;-64
2022/05/31 04:57:19;;;;;;;7.80;4.15;;;9.80;99.90;;;;;;5095168;28;20058;-64
2022/05/31 04:59:45;;;;;;;6.28;4.38;;;9.80;99.90;;;;;;5094603;28;20130;-64
2022/05/31 05:02:11;;;;;;;5.55;4.07;;;9.80;99.90;;;;;;5102034;28;20461;-64
2022/05/31 05:04:37;;;;;;;6.00;3.97;;;9.90;99.90;;;;;;5113182;28;20048;-65
2022/05/31 05:07:03;;;;;;;4.75;4.00;;;9.90;99.90;;;;;;5114248;28;20052;-65
2022/05/31 05:09:28;;;;;;;6.35;4.90;;;10.00;99.90;;;;;;5108683;28;20067;-65
2022/05/31 05:11:54;;;;;;;4.80;4.40;;;10.00;99.90;;;;;;5108319;28;20047;-65
2022/05/31 05:14:19;;;;;;;5.88;4.30;;;10.00;99.90;;;;;;5087063;28;20047;-65
2022/05/31 05:16:46;;;;;;;4.60;4.20;;;10.10;99.90;;;;;;5113744;28;20048;-65
2022/05/31 05:19:12;;;;;;;4.65;4.18;;;10.10;99.90;;;;;;5108879;28;20392;-64
2022/05/31 05:21:39;;;;;;;5.13;4.57;;;10.20;99.90;;;;;;5108308;28;20051;-65
2022/05/31 05:24:05;;;;;;;5.15;4.47;;;10.30;99.90;;;;;;5111358;28;20054;-65
2022/05/31 05:26:30;;;;;;;4.95;4.50;;;10.30;99.90;;;;;;5106403;28;20125;-64
2022/05/31 05:31:41;;;;;;;5.88;4.25;;;10.40;99.90;;;;;;5108360;28;20143;-65
2022/05/31 05:34:08;;;;;;;5.45;4.75;;;10.40;99.90;;;;;;5091869;28;20048;-64
2022/05/31 05:36:34;;;;;;;6.18;4.43;;;10.50;99.90;;;;;;5095994;28;20051;-64
2022/05/31 05:39:00;;;;;;;4.97;4.28;;;10.50;99.90;;;;;;5087239;28;20044;-64
2022/05/31 05:41:29;;;;;;;6.55;4.30;;;10.50;99.90;;;;;;5090426;28;20132;-64
2022/05/31 05:43:55;;;;;;;5.18;4.35;;;10.60;99.90;;;;;;5116569;27;20396;-64
2022/05/31 05:46:24;;;;;;;5.07;4.10;;;10.70;99.90;;;;;;5087362;28;20052;-64
2022/05/31 05:48:50;;;;;;;4.43;4.00;;;10.70;99.90;;;;;;5079707;28;20106;-64
2022/05/31 05:51:19;;;;;;;5.97;4.32;;;10.80;99.90;;;;;;5091005;28;20074;-64
2022/05/31 05:53:45;;;;;;;4.55;3.88;;;10.80;99.90;;;;;;5086898;28;20051;-65
2022/05/31 05:56:13;;;;;;;4.90;4.15;;;10.90;99.90;;;;;;5081784;28;20048;-64
2022/05/31 05:58:39;;;;;;;4.45;3.97;;;11.00;99.90;;;;;;5081755;28;20056;-64
2022/05/31 06:01:11;;;;;;;3.97;3.53;;;11.10;99.90;;;;;;5091418;28;20056;-64
2022/05/31 06:03:50;;;;;;;5.13;4.43;;;11.10;99.90;;;;;;5093314;28;20056;-65
2022/05/31 06:06:17;;;;;;;4.57;4.18;;;11.20;99.90;;;;;;5092930;28;20036;-65
2022/05/31 06:09:10;;;;;;;5.85;4.30;;;11.30;99.90;;;;;;5093772;28;20052;-64
2022/05/31 06:11:39;;;;;;;6.30;4.32;;;11.20;99.90;;;;;;5086036;28;20411;-65
2022/05/31 06:14:15;;;;;;;5.47;4.20;;;11.30;99.90;;;;;;5077656;28;20053;-64
2022/05/31 06:16:49;;;;;;;5.85;3.90;;;11.30;99.90;;;;;;5104999;28;20052;-64
2022/05/31 06:19:21;;;;;;;5.32;4.00;;;11.30;99.90;;;;;;5105302;28;20362;-64
2022/05/31 06:21:49;;;;;;;5.30;4.10;;;11.40;99.90;;;;;;5084657;28;20522;-64
2022/05/31 06:24:17;;;;;;;4.53;4.10;;;11.40;99.90;;;;;;5091550;28;20330;-65
2022/05/31 06:26:42;;;;;;;5.53;4.00;;;11.50;99.90;;;;;;5093807;28;20063;-64
2022/05/31 06:29:08;;;;;;;4.60;3.70;;;11.60;99.90;;;;;;5146769;27;20497;-64
2022/05/31 06:31:33;;;;;;;5.28;3.70;;;11.70;99.90;;;;;;5112608;28;20407;-65
2022/05/31 06:33:59;;;;;;;5.55;4.80;;;11.80;99.90;;;;;;5145784;27;20067;-65
2022/05/31 06:36:24;;;;;;;6.65;4.38;;;11.90;99.90;;;;;;5110138;28;20062;-64
2022/05/31 06:38:50;;;;;;;5.55;4.95;;;11.90;99.90;;;;;;5113304;28;20135;-64
2022/05/31 06:41:15;;;;;;;5.35;4.63;;;12.00;99.90;;;;;;5108870;28;20457;-64
2022/05/31 06:43:41;;;;;;;4.80;3.75;;;12.10;99.90;;;;;;5111679;28;20484;-64
2022/05/31 06:46:10;;;;;;;5.70;4.45;;;12.20;99.90;;;;;;5127127;27;20052;-65
2022/05/31 06:48:35;;;;;;;6.25;4.32;;;12.40;99.90;;;;;;5096663;28;20431;-65
2022/05/31 06:51:06;;;;;;;5.40;4.00;;;12.50;99.90;;;;;;5095306;28;20059;-65
2022/05/31 06:58:57;;;;;;;5.28;4.05;;;13.00;99.90;;;;;;5111871;28;20060;-65
2022/05/31 07:01:30;;;;;;;4.68;4.22;;;13.50;99.90;;;;;;5095329;28;20142;-64
2022/05/31 07:03:57;;;;;;;4.40;4.00;;;13.80;99.90;;;;;;5094900;28;20048;-63
2022/05/31 07:06:22;;;;;;;5.57;3.92;;;14.10;99.90;;;;;;5107766;28;20051;-64
2022/05/31 07:08:48;;;;;;;6.78;4.25;;;14.20;99.90;;;;;;5116548;28;20140;-65
2022/05/31 07:11:13;;;;;;;5.88;3.80;;;14.30;99.90;;;;;;5116525;28;20052;-64
2022/05/31 07:13:39;;;;;;;6.63;4.07;;;14.50;99.90;;;;;;5114367;28;20134;-65
2022/05/31 07:16:04;;;;;;;4.53;3.83;;;14.70;99.90;;;;;;5094403;28;20094;-65
2022/05/31 07:18:30;;;;;;;4.20;3.80;;;14.80;99.90;;;;;;5095254;28;20048;-64
2022/05/31 07:20:55;;;;;;;4.35;3.90;;;14.90;99.90;;;;;;5131194;27;20479;-64
2022/05/31 07:23:21;;;;;;;6.55;4.03;;;14.90;99.90;;;;;;5091331;28;20529;-64
2022/05/31 07:25:47;;;;;;;3.90;3.55;;;14.90;99.90;;;;;;5109100;28;20057;-65
2022/05/31 07:28:13;;;;;;;4.65;3.75;;;14.90;99.90;;;;;;5108378;28;20063;-65
2022/05/31 07:30:39;;;;;;;5.93;3.72;;;15.00;99.90;;;;;;5075920;28;20059;-65
2022/05/31 07:33:04;;;;;;;5.90;3.55;;;15.10;99.90;;;;;;5073641;28;20052;-62
2022/05/31 07:35:30;;;;;;;4.80;3.38;;;15.20;99.90;;;;;;5114458;28;20040;-64
2022/05/31 07:37:56;;;;;;;5.70;4.15;;;15.30;99.90;;;;;;5094046;28;20062;-63
2022/05/31 07:40:22;;;;;;;4.32;3.28;;;15.50;99.90;;;;;;5095497;28;20396;-64
2022/05/31 07:42:47;;;;;;;4.65;3.35;;;15.30;99.90;;;;;;5093860;28;20044;-65
2022/05/31 07:45:13;;;;;;;4.57;3.20;;;15.70;99.90;;;;;;5103588;28;20051;-64
2022/05/31 07:47:38;;;;;;;4.63;3.10;;;15.80;99.90;;;;;;5148851;27;20392;-63
2022/05/31 07:50:04;;;;;;;4.40;3.33;;;16.00;99.90;;;;;;5137245;27;20048;-64
2022/05/31 07:52:32;;;;;;;3.63;3.33;;;16.10;99.90;;;;;;5110504;28;20052;-64
2022/05/31 07:54:58;;;;;;;4.80;3.25;;;16.00;99.90;;;;;;5094849;28;20492;-64
2022/05/31 08:00:08;;;;;;;5.72;3.50;;;16.10;99.90;;;;;;5095164;28;20048;-65
2022/05/31 08:02:34;;;;;;;5.05;3.30;;;16.10;99.90;;;;;;5093388;28;20088;-64
2022/05/31 08:05:00;;;;;;;7.00;3.05;;;16.20;99.90;;;;;;5093506;28;20086;-64
2022/05/31 08:07:25;;;;;;;5.18;3.05;;;16.20;99.90;;;;;;5098792;28;20060;-64
2022/05/31 08:09:51;;;;;;;4.55;2.95;;;16.40;99.90;;;;;;5102538;28;20059;-65
2022/05/31 08:12:16;;;;;;;5.03;3.80;;;16.70;99.90;;;;;;5106503;28;20055;-66
2022/05/31 08:14:42;;;;;;;3.63;2.90;;;16.80;99.90;;;;;;5098881;28;20040;-65
2022/05/31 08:17:09;;;;;;;5.22;3.30;;;17.00;99.90;;;;;;5112337;28;20059;-65
2022/05/31 08:19:37;;;;;;;4.53;3.30;;;17.20;99.90;;;;;;5097855;28;20052;-64
2022/05/31 08:22:04;;;;;;;3.90;2.95;;;17.30;99.90;;;;;;5103587;27;20059;-65
2022/05/31 08:24:31;;;;;;;4.65;3.08;;;17.30;99.90;;;;;;5107821;28;20066;-65
2022/05/31 08:26:56;;;;;;;6.72;2.88;;;17.20;99.90;;;;;;5094015;28;20064;-65
2022/05/31 08:29:23;;;;;;;4.25;2.88;;;17.30;99.90;;;;;;5092922;28;20123;-63
2022/05/31 08:31:48;;;;;;;5.35;3.35;;;17.40;98.50;;;;;;5091639;28;20556;-64
2022/05/31 08:34:14;;;;;;;5.38;3.58;;;17.50;98.60;;;;;;5094497;28;20076;-64
2022/05/31 08:36:40;;;;;;;3.67;2.67;;;17.40;99.00;;;;;;5093982;28;20156;-64
2022/05/31 08:39:07;;;;;;;5.50;3.33;;;17.60;97.50;;;;;;5078317;28;20132;-64
2022/05/31 08:41:42;;;;;;;4.05;3.15;;;17.70;92.80;;;;;;5127742;27;20047;-64
2022/05/31 08:44:34;;;;;;;4.40;4.00;;;17.90;83.20;;;;;;5102832;28;20047;-64
2022/05/31 08:47:13;;;;;;;7.20;5.25;;;18.00;85.50;;;;;;5091747;28;20036;-64
2022/05/31 08:53:05;;;;;;;6.32;4.40;;;18.00;77.10;;;;;;5093446;28;20040;-64
2022/05/31 08:58:45;;;;;;;;;;;18.10;74.50;;;;;;5063980;28;20060;-64
2022/05/31 09:01:15;;;;;;;5.13;4.05;;;17.90;67.60;;;;;;5091794;28;19974;-64
2022/05/31 09:03:48;;;;;;;6.15;4.55;;;17.90;74.70;;;;;;5094192;28;20040;-64
2022/05/31 09:06:45;;;;;;;7.93;4.57;;;18.00;76.30;;;;;;5101838;28;20039;-65
2022/05/31 09:09:24;;;;;;;6.00;5.40;;;18.10;68.80;;;;;;5146664;27;20081;-65
2022/05/31 09:12:09;;;;;;;6.78;5.50;;;18.00;67.80;;;;;;5114436;28;20058;-65
2022/05/31 09:14:37;;;;;;;7.85;5.63;;;18.10;63.80;;;;;;5082026;28;20507;-65
2022/05/31 09:17:05;;;;;;;7.80;5.72;;;18.20;67.90;;;;;;5093211;28;20101;-65
2022/05/31 09:19:43;;;;;;;6.97;5.57;;;18.50;67.50;;;;;;5094064;28;20127;-66
2022/05/31 09:22:08;;;;;;;7.28;5.70;;;18.40;64.40;;;;;;5092771;28;20052;-66
2022/05/31 09:24:40;;;;;;;6.45;5.25;;;18.30;66.50;;;;;;5092603;28;20569;-65
2022/05/31 09:27:06;;;;;;;8.95;5.90;;;18.20;66.60;;;;;;5090929;28;20044;-65
2022/05/31 09:29:53;;;;;;;9.32;5.40;;;18.10;67.70;;;;;;5116395;27;20454;-65
2022/05/31 09:32:52;;;;;;;9.52;5.38;;;18.10;69.80;;;;;;5091417;28;20055;-65
2022/05/31 09:35:39;;;;;;;7.85;5.03;;;17.90;62.80;;;;;;5126075;27;20120;-65
2022/05/31 09:38:32;;;;;;;7.32;6.03;;;17.70;64.80;;;;;;5093310;28;20052;-65
2022/05/31 09:41:13;;;;;;;9.48;6.03;;;17.50;65.10;;;;;;5093713;28;20185;-65
2022/05/31 09:44:06;;;;;;;6.50;5.10;;;17.40;68.10;;;;;;5106607;28;20130;-64
2022/05/31 09:46:56;;;;;;;5.68;4.35;;;17.30;68.70;;;;;;5110845;28;20509;-64
2022/05/31 09:49:45;;;;;;;4.90;3.58;;;17.20;69.80;;;;;;5146731;27;20051;-64
2022/05/31 09:52:30;;;;;;;5.15;3.03;;;17.20;68.00;;;;;;5136496;27;20044;-64
2022/05/31 09:58:09;;;;;;;5.72;3.33;;;17.10;61.90;;;;;;5093453;28;20043;-64
2022/05/31 10:00:36;;;;;;;4.75;3.60;;;17.00;64.90;;;;;;5091812;28;20051;-63
2022/05/31 10:03:13;;;;;;;6.38;3.90;;;17.00;65.30;;;;;;5092457;28;20430;-65
2022/05/31 10:05:40;;;;;;;4.97;3.63;;;17.00;63.90;;;;;;5092022;28;20079;-65
2022/05/31 10:08:29;;;;;;;7.78;3.80;;;17.00;64.30;;;;;;5091433;28;20396;-65
2022/05/31 10:10:54;;;;;;;4.68;3.00;;;17.00;63.60;;;;;;5091955;28;20056;-65
2022/05/31 10:13:37;;;;;;;5.05;3.28;;;17.00;63.10;;;;;;5091404;28;20132;-64
2022/05/31 10:16:23;;;;;;;5.13;3.20;;;16.90;61.10;;;;;;5088795;28;20058;-65
2022/05/31 10:19:00;;;;;;;5.18;3.88;;;17.30;61.70;;;;;;5090532;28;20055;-64
2022/05/31 10:21:37;;;;;;;5.10;3.60;;;17.40;62.00;;;;;;5098225;28;20052;-65
2022/05/31 10:24:20;;;;;;;5.68;3.33;;;17.60;60.80;;;;;;5098422;28;20047;-65
2022/05/31 10:27:04;;;;;;;4.68;3.42;;;17.80;60.80;;;;;;5093048;28;20051;-65
2022/05/31 10:29:36;;;;;;;4.07;3.58;;;18.00;58.70;;;;;;5097886;28;20048;-65
2022/05/31 10:32:34;;;;;;;4.03;3.63;;;18.30;60.30;;;;;;5103224;28;20040;-65
2022/05/31 10:35:14;;;;;;;4.25;3.60;;;18.40;57.50;;;;;;5104223;27;20055;-65
2022/05/31 10:37:57;;;;;;;5.78;3.13;;;18.60;55.20;;;;;;5099177;28;20110;-64
2022/05/31 10:40:53;;;;;;;4.22;3.60;;;18.70;59.40;;;;;;5080351;28;20119;-65
2022/05/31 10:43:44;;;;;;;3.58;3.28;;;18.90;58.70;;;;;;5097994;28;20509;-63
2022/05/31 10:46:13;;;;;;;4.35;3.58;;;18.90;56.00;;;;;;5098793;28;20035;-65
2022/05/31 10:48:48;;;;;;;4.80;3.50;;;19.90;59.10;;;;;;5097502;28;20097;-65
2022/05/31 10:51:50;;;;;;;6.22;4.25;;;19.10;57.00;;;;;;5097457;28;20041;-64
2022/05/31 10:54:37;;;;;;;5.20;3.53;;;19.10;56.70;;;;;;5097424;28;20098;-64
2022/05/31 10:57:23;;;;;;;6.40;3.85;;;19.40;56.50;;;;;;5081491;28;20043;-64
2022/05/31 11:00:23;;;;;;;4.25;3.70;;;19.40;55.40;;;;;;5099512;28;20052;-65
2022/05/31 11:02:54;;;;;;;3.33;3.03;;;19.30;55.40;;;;;;5114674;28;20044;-65
2022/05/31 11:05:30;;;;;;;5.50;3.65;;;19.50;55.90;;;;;;5099513;28;20048;-64
2022/05/31 11:11:30;;;;;;;4.57;3.67;;;19.20;56.10;;;;;;5098724;28;20052;-64
2022/05/31 11:14:22;;;;;;;5.40;3.50;;;19.10;55.40;;;;;;5099290;28;20048;-63
2022/05/31 11:17:02;;;;;;;4.85;3.65;;;19.00;54.80;;;;;;5098970;28;20055;-64
2022/05/31 11:19:34;;;;;;;5.07;3.70;;;18.90;56.20;;;;;;5098523;28;20074;-64
2022/05/31 11:22:17;;;;;;;4.43;3.30;;;18.80;56.10;;;;;;5098277;28;20056;-64
2022/05/31 11:24:49;;;;;;;4.07;2.90;;;18.70;54.70;;;;;;5099978;28;20365;-64
2022/05/31 11:27:30;;;;;;;5.88;3.08;;;18.60;55.90;;;;;;5114766;28;20056;-64
2022/05/31 11:30:05;;;;;;;4.35;3.15;;;18.80;56.60;;;;;;5099438;28;20044;-65
2022/05/31 11:33:02;;;;;;;3.40;3.05;;;18.70;55.50;;;;;;5095030;28;20056;-65
2022/05/31 11:36:05;;;;;;;8.43;3.35;;;18.70;52.40;;;;;;5120546;27;20119;-64
2022/05/31 11:38:46;;;;;;;5.07;3.53;;;18.70;54.00;;;;;;5094438;28;20063;-64
2022/05/31 11:41:41;;;;;;;4.87;3.70;;;18.70;55.50;;;;;;5111093;28;20044;-64
2022/05/31 11:44:51;;;;;;;4.05;3.10;;;18.70;53.70;;;;;;5095675;28;20430;-64
2022/05/31 11:47:25;;;;;;;6.75;3.75;;;18.80;56.10;;;;;;5107753;27;20458;-64
2022/05/31 11:50:14;;;;;;;4.80;3.80;;;18.70;55.80;;;;;;5095924;28;20059;-64
2022/05/31 11:53:14;;;;;;;57.92;7.82;;;18.70;55.20;;;;;;5094044;28;20046;-64
2022/05/31 11:55:49;;;;;;;13.20;4.35;;;18.70;54.50;;;;;;5075219;28;20057;-65
2022/05/31 11:58:24;;;;;;;21.92;5.00;;;18.70;54.40;;;;;;5119882;27;20074;-64
2022/05/31 12:01:15;;;;;;;13.75;3.92;;;18.70;55.00;;;;;;5096046;28;20059;-64
2022/05/31 12:04:03;;;;;;;6.35;3.55;;;18.90;54.60;;;;;;5094072;28;20157;-65
2022/05/31 12:06:49;;;;;;;5.95;3.75;;;18.90;55.60;;;;;;5109489;28;20457;-65
2022/05/31 12:09:44;;;;;;;4.93;3.70;;;19.00;56.20;;;;;;5106311;28;20044;-64
2022/05/31 12:12:15;;;;;;;6.07;3.50;;;19.20;54.90;;;;;;5086446;28;20052;-65
2022/05/31 12:14:59;;;;;;;6.63;3.50;;;19.10;55.70;;;;;;5094095;28;20052;-65
2022/05/31 12:17:37;;;;;;;5.50;3.92;;;19.00;55.20;;;;;;5095066;28;20477;-65
2022/05/31 12:20:47;;;;;;;4.80;4.40;;;19.00;54.50;;;;;;5110946;28;20040;-66
2022/05/31 12:23:37;;;;;;;8.75;5.28;;;18.90;53.70;;;;;;5094432;28;20441;-64
2022/05/31 12:26:17;;;;;;;6.07;5.00;;;18.80;56.00;;;;;;5127609;27;20055;-65
2022/05/31 12:28:49;;;;;;;7.35;5.70;;;18.80;57.10;;;;;;5096308;28;20384;-66
2022/05/31 12:31:29;;;;;;;6.85;6.13;;;18.60;57.40;;;;;;5101321;28;20451;-65
2022/05/31 12:34:31;;;;;;;7.30;5.85;;;18.50;58.30;;;;;;5115256;28;20063;-64
2022/05/31 12:37:06;;;;;;;8.60;6.03;;;18.30;57.70;;;;;;5081530;28;20047;-63
2022/05/31 12:39:34;;;;;;;7.63;6.13;;;18.10;58.20;;;;;;5092801;28;20060;-64
2022/05/31 12:42:12;;;;;;;7.78;6.03;;;18.00;58.60;;;;;;5093172;28;20472;-63
2022/05/31 12:44:39;;;;;;;7.68;6.80;;;17.80;59.30;;;;;;5096388;28;20433;-65
2022/05/31 12:47:29;;;;;;;9.27;6.22;;;17.80;59.30;;;;;;5135223;27;20048;-64
2022/05/31 12:50:04;;;;;;;6.50;5.65;;;17.80;61.50;;;;;;5093188;28;20051;-66
2022/05/31 12:55:26;;;;;;;9.35;6.20;;;18.10;61.20;;;;;;5108657;27;20040;-65
2022/05/31 13:00:52;;;;;;;7.10;6.40;;;17.60;59.10;;;;;;5094811;28;20048;-65
2022/05/31 13:03:33;;;;;;;6.68;5.90;;;17.40;59.40;;;;;;5098353;28;20048;-65
2022/05/31 13:06:02;;;;;;;8.77;6.35;;;17.40;59.80;;;;;;5094842;28;20572;-65
2022/05/31 13:08:52;;;;;;;8.40;6.60;;;17.20;59.60;;;;;;5092658;28;20044;-64
2022/05/31 13:20:11;;;;;;;6.78;6.07;;;16.80;60.90;;;;;;5111539;28;20052;-64
2022/05/31 13:22:42;;;;;;;6.65;5.93;;;16.70;61.60;;;;;;5069675;28;20133;-65
2022/05/31 13:25:42;;;;;;;10.25;6.05;;;16.60;61.40;;;;;;5074000;28;20073;-64
2022/05/31 13:28:08;;;;;;;7.15;5.63;;;16.50;61.40;;;;;;5079376;28;20052;-65
2022/05/31 13:30:41;;;;;;;6.40;5.80;;;16.40;61.50;;;;;;5093240;28;20057;-64
2022/05/31 13:33:22;;;;;;;8.02;5.45;;;16.30;62.30;;;;;;5092075;28;20048;-65
2022/05/31 13:36:08;;;;;;;6.30;5.03;;;16.30;62.90;;;;;;5093469;28;20083;-64
2022/05/31 13:38:40;;;;;;;6.93;5.22;;;16.20;62.70;;;;;;5093552;28;20048;-65
2022/05/31 13:41:10;;;;;;;11.38;6.00;;;16.40;62.80;;;;;;5093002;28;20475;-65
2022/05/31 13:43:40;;;;;;;7.47;5.15;;;16.30;62.60;;;;;;5092092;28;20052;-65
2022/05/31 13:46:13;;;;;;;8.63;5.50;;;16.30;62.60;;;;;;5092021;28;20048;-65
2022/05/31 13:48:40;;;;;;;5.90;5.03;;;16.20;63.00;;;;;;5093007;28;20128;-65
2022/05/31 13:51:17;;;;;;;8.30;5.30;;;16.20;64.00;;;;;;5092439;28;20055;-65
2022/05/31 13:53:44;;;;;;;7.03;4.55;;;16.40;64.60;;;;;;5073410;28;20098;-65
2022/05/31 13:56:16;;;;;;;5.68;4.75;;;16.10;65.20;;;;;;5088381;28;20075;-65